createdAt,value
2018-10-11T00:00:05.933Z,96351.66
2018-10-11T00:02:35.135Z,96349.78
2018-10-11T00:05:04.345Z,96352.56
2018-10-11T00:07:33.534Z,96356.45
2018-10-11T00:10:02.735Z,96357.68
2018-10-11T00:12:31.919Z,96350.37
2018-10-11T00:15:01.101Z,96355.34
2018-10-11T00:17:31.007Z,96360.50
2018-10-11T00:20:01.095Z,96358.36
2018-10-11T00:22:31.227Z,96349.84
2018-10-11T00:25:01.018Z,96352.20
2018-10-11T00:27:31.110Z,96348.83
2018-10-11T00:30:01.066Z,96345.64
2018-10-11T00:32:31.015Z,96346.55
2018-10-11T00:35:01.225Z,96342.30
2018-10-11T00:37:31.015Z,96340.77
2018-10-11T00:40:01.076Z,96341.13
2018-10-11T00:42:31.234Z,96337.07
2018-10-11T00:45:00.994Z,96337.70
2018-10-11T00:47:31.002Z,96327.14
2018-10-11T00:50:01.187Z,96326.17
2018-10-11T00:52:31.038Z,96326.41
2018-10-11T00:55:01.057Z,96320.48
2018-10-11T00:57:31.099Z,96321.52
2018-10-11T01:00:01.158Z,96321.20
2018-10-11T01:02:31.006Z,96320.84
2018-10-11T01:05:01.098Z,96321.48
2018-10-11T01:07:31.042Z,96324.02
2018-10-11T01:10:01.160Z,96322.24
2018-10-11T01:12:31.130Z,96320.47
2018-10-11T01:15:01.104Z,96313.82
2018-10-11T01:17:31.117Z,96315.05
2018-10-11T01:20:01.143Z,96317.23
2018-10-11T01:22:31.079Z,96320.97
2018-10-11T01:25:01.062Z,96322.52
2018-10-11T01:27:31.155Z,96313.41
2018-10-11T01:30:01.158Z,96318.15
2018-10-11T01:32:31.115Z,96310.02
2018-10-11T01:35:01.393Z,96312.23
2018-10-11T01:37:31.142Z,96308.67
2018-10-11T01:40:01.172Z,96302.28
2018-10-11T01:42:31.078Z,96294.81
2018-10-11T01:45:01.100Z,96299.88
2018-10-11T01:47:31.072Z,96291.94
2018-10-11T01:50:01.170Z,96296.31
2018-10-11T01:52:31.429Z,96299.07
2018-10-11T01:55:01.190Z,96304.05
2018-10-11T01:57:31.097Z,96307.09
2018-10-11T02:00:01.591Z,96297.27
2018-10-11T02:02:31.162Z,96304.41
2018-10-11T02:05:01.307Z,96302.55
2018-10-11T02:07:31.129Z,96300.62
2018-10-11T02:10:01.166Z,96304.00
2018-10-11T02:12:31.559Z,96298.81
2018-10-11T02:15:01.194Z,96296.66
2018-10-11T02:17:31.225Z,96301.81
2018-10-11T02:20:01.245Z,96296.61
2018-10-11T02:22:31.146Z,96293.66
2018-10-11T02:25:01.558Z,96292.88
2018-10-11T02:27:31.179Z,96293.70
2018-10-11T02:30:01.233Z,96291.65
2018-10-11T02:32:31.219Z,96290.18
2018-10-11T02:35:01.152Z,96295.05
2018-10-11T02:37:31.254Z,96292.36
2018-10-11T02:40:01.192Z,96291.09
2018-10-11T02:42:31.181Z,96295.38
2018-10-11T02:45:01.256Z,96293.97
2018-10-11T02:47:31.214Z,96291.02
2018-10-11T02:50:01.180Z,96292.70
2018-10-11T02:52:31.269Z,96301.63
2018-10-11T02:55:01.269Z,96294.14
2018-10-11T02:58:49.062Z,96294.64
2018-10-11T03:01:19.010Z,96290.45
2018-10-11T03:03:48.197Z,96286.31
2018-10-11T03:06:17.391Z,96283.31
2018-10-11T03:08:46.584Z,96287.05
2018-10-11T03:11:15.758Z,96275.33
2018-10-11T03:13:44.926Z,96278.64
2018-10-11T03:16:14.106Z,96286.56
2018-10-11T03:18:43.275Z,96285.17
2018-10-11T03:21:12.450Z,96284.25
2018-10-11T03:23:41.618Z,96277.75
2018-10-11T03:26:11.079Z,96279.80
2018-10-11T03:28:40.246Z,96284.20
2018-10-11T03:31:09.438Z,96287.44
2018-10-11T03:33:38.609Z,96283.50
2018-10-11T03:36:08.036Z,96283.89
2018-10-11T03:38:37.321Z,96280.44
2018-10-11T03:41:06.637Z,96277.95
2018-10-11T03:43:35.834Z,96287.20
2018-10-11T03:46:05.161Z,96287.34
2018-10-11T03:48:34.338Z,96301.32
2018-10-11T03:51:03.514Z,96294.50
2018-10-11T03:53:32.694Z,96293.12
2018-10-11T03:56:01.866Z,96291.88
2018-10-11T03:58:31.458Z,96295.72
2018-10-11T04:01:01.677Z,96292.20
2018-10-11T04:03:31.331Z,96285.44
2018-10-11T04:06:01.350Z,96280.73
2018-10-11T04:08:31.316Z,96284.81
2018-10-11T04:11:01.347Z,96282.84
2018-10-11T04:13:31.354Z,96283.15
2018-10-11T04:16:01.315Z,96291.86
2018-10-11T04:18:31.406Z,96288.61
2018-10-11T04:21:01.582Z,96288.86
2018-10-11T04:23:32.090Z,96284.85
2018-10-11T04:26:01.595Z,96298.92
2018-10-11T04:28:31.349Z,96296.87
2018-10-11T04:31:01.374Z,96294.14
2018-10-11T04:33:31.393Z,96288.81
2018-10-11T04:36:01.421Z,96285.38
2018-10-11T04:38:31.443Z,96284.92
2018-10-11T04:41:01.451Z,96288.20
2018-10-11T04:48:54.551Z,96291.91
2018-10-11T04:51:23.813Z,96289.55
2018-10-11T04:53:55.015Z,96291.29
2018-10-11T04:56:26.162Z,96297.78
2018-10-11T04:58:55.470Z,96300.87
2018-10-11T05:01:24.646Z,96295.98
2018-10-11T05:03:53.796Z,96293.98
2018-10-11T05:06:22.935Z,96284.35
2018-10-11T05:08:52.080Z,96288.31
2018-10-11T05:11:21.254Z,96297.24
2018-10-11T05:13:51.488Z,96306.66
2018-10-11T05:16:20.625Z,96309.34
2018-10-11T05:18:55.778Z,96310.61
2018-10-11T05:21:24.933Z,96324.91
2018-10-11T05:23:54.067Z,96326.05
2018-10-11T05:26:23.221Z,96317.32
2018-10-11T05:28:52.361Z,96322.48
2018-10-11T05:31:21.502Z,96326.81
2018-10-11T05:33:51.367Z,96327.83
2018-10-11T05:36:20.494Z,96334.20
2018-10-11T05:38:49.631Z,96343.92
2018-10-11T05:41:18.758Z,96339.14
2018-10-11T05:43:47.891Z,96350.97
2018-10-11T05:46:21.128Z,96355.98
2018-10-11T05:48:50.499Z,96358.45
2018-10-11T05:51:20.622Z,96365.66
2018-10-11T05:53:49.925Z,96353.38
2018-10-11T05:56:20.243Z,96357.28
2018-10-11T05:58:50.670Z,96350.14
2018-10-11T06:01:20.157Z,96356.41
2018-10-11T06:03:49.398Z,96356.50
2018-10-11T06:06:18.546Z,96357.81
2018-10-11T06:08:47.711Z,96357.40
2018-10-11T06:11:16.962Z,96359.09
2018-10-11T06:13:48.566Z,96357.34
2018-10-11T06:16:17.698Z,96357.78
2018-10-11T06:18:46.922Z,96359.47
2018-10-11T06:21:16.308Z,96369.78
2018-10-11T06:23:45.453Z,96375.88
2018-10-11T06:26:14.906Z,96386.94
2018-10-11T06:28:44.294Z,96388.41
2018-10-11T06:31:13.416Z,96388.82
2018-10-11T06:33:43.489Z,96386.25
2018-10-11T06:36:12.864Z,96382.73
2018-10-11T06:38:42.045Z,96387.25
2018-10-11T06:41:11.190Z,96388.53
2018-10-11T06:43:40.663Z,96394.69
2018-10-11T06:46:09.815Z,96401.34
2018-10-11T06:48:39.325Z,96406.91
2018-10-11T06:51:08.643Z,96408.44
2018-10-11T06:53:37.826Z,96415.38
2018-10-11T06:56:07.165Z,96420.06
2018-10-11T06:58:36.427Z,96414.89
2018-10-11T07:01:05.648Z,96429.14
2018-10-11T07:03:34.777Z,96432.61
2018-10-11T07:06:03.914Z,96428.13
2018-10-11T07:08:33.723Z,96433.75
2018-10-11T07:11:09.063Z,96440.61
2018-10-11T07:13:38.191Z,96438.81
2018-10-11T07:16:07.369Z,96438.08
2018-10-11T07:18:37.732Z,96445.84
2018-10-11T07:21:06.866Z,96438.83
2018-10-11T07:23:36.006Z,96444.31
2018-10-11T07:26:05.223Z,96449.46
2018-10-11T07:28:34.343Z,96449.34
2018-10-11T07:31:03.483Z,96454.18
2018-10-11T07:33:32.615Z,96456.39
2018-10-11T07:36:01.842Z,96464.91
2018-10-11T07:38:32.347Z,96465.11
2018-10-11T07:41:02.108Z,96469.48
2018-10-11T07:43:34.217Z,96480.75
2018-10-11T07:46:03.349Z,96480.01
2018-10-11T07:48:32.498Z,96483.66
2018-10-11T07:51:02.130Z,96487.20
2018-10-11T07:53:32.145Z,96486.95
2018-10-11T07:56:02.364Z,96491.48
2018-10-11T07:58:32.244Z,96485.45
2018-10-11T08:01:02.324Z,96486.48
2018-10-11T08:03:32.740Z,96479.27
2018-10-11T08:06:02.709Z,96486.21
2018-10-11T08:08:32.728Z,96484.41
2018-10-11T08:11:03.100Z,96486.20
2018-10-11T08:13:32.757Z,96490.22
2018-10-11T08:16:02.666Z,96488.28
2018-10-11T08:18:32.634Z,96488.64
2018-10-11T08:21:02.808Z,96491.11
2018-10-11T08:23:32.778Z,96489.78
2018-10-11T08:26:03.002Z,96482.19
2018-10-11T08:28:33.166Z,96490.50
2018-10-11T08:31:02.731Z,96493.60
2018-10-11T08:33:32.820Z,96498.55
2018-10-11T08:36:02.756Z,96501.72
2018-10-11T08:38:33.203Z,96504.28
2018-10-11T08:41:02.794Z,96498.50
2018-10-11T08:43:32.755Z,96499.66
2018-10-11T08:46:02.798Z,96502.58
2018-10-11T08:48:32.738Z,96499.67
2018-10-11T08:51:02.863Z,96500.66
2018-10-11T08:53:32.824Z,96498.67
2018-10-11T08:56:02.904Z,96504.64
2018-10-11T08:58:32.978Z,96500.44
2018-10-11T09:01:02.839Z,96509.31
2018-10-11T09:03:33.022Z,96511.78
2018-10-11T09:06:02.849Z,96508.30
2018-10-11T09:08:32.843Z,96510.20
2018-10-11T09:11:03.300Z,96514.78
2018-10-11T09:13:32.798Z,96519.44
2018-10-11T09:16:01.951Z,96515.83
2018-10-11T09:18:31.080Z,96516.41
2018-10-11T09:21:00.219Z,96523.41
2018-10-11T09:23:29.631Z,96517.87
2018-10-11T09:25:58.806Z,96527.78
2018-10-11T09:28:27.957Z,96517.64
2018-10-11T09:30:57.087Z,96519.83
2018-10-11T09:33:26.238Z,96525.17
2018-10-11T09:35:55.354Z,96527.37
2018-10-11T09:38:24.494Z,96524.73
2018-10-11T09:40:53.631Z,96521.82
2018-10-11T09:43:22.899Z,96518.06
2018-10-11T09:45:52.109Z,96513.31
2018-10-11T09:48:21.333Z,96521.04
2018-10-11T09:50:50.470Z,96512.50
2018-10-11T09:53:19.606Z,96510.91
2018-10-11T09:55:48.758Z,96512.22
2018-10-11T09:58:17.952Z,96503.64
2018-10-11T10:00:52.382Z,96506.88
2018-10-11T10:03:21.518Z,96508.72
2018-10-11T10:05:50.642Z,96512.46
2018-10-11T10:08:19.780Z,96520.41
2018-10-11T10:10:48.923Z,96518.50
2018-10-11T10:13:18.277Z,96507.02
2018-10-11T10:15:47.398Z,96510.22
2018-10-11T10:18:16.537Z,96508.61
2018-10-11T10:20:45.682Z,96513.96
2018-10-11T10:23:15.004Z,96516.53
2018-10-11T10:25:44.322Z,96513.28
2018-10-11T10:28:13.634Z,96516.14
2018-10-11T10:30:51.103Z,96504.08
2018-10-11T10:33:21.122Z,96504.59
2018-10-11T10:35:50.322Z,96503.80
2018-10-11T10:38:19.726Z,96500.54
2018-10-11T10:40:48.866Z,96494.93
2018-10-11T10:43:18.715Z,96498.16
2018-10-11T10:45:47.850Z,96494.13
2018-10-11T10:48:17.001Z,96487.42
2018-10-11T10:50:46.137Z,96488.55
2018-10-11T10:53:15.280Z,96488.30
2018-10-11T10:55:44.450Z,96485.61
2018-10-11T10:58:13.590Z,96490.14
2018-10-11T11:00:42.728Z,96490.34
2018-10-11T11:03:11.926Z,96488.98
2018-10-11T11:05:41.081Z,96485.11
2018-10-11T11:08:10.211Z,96485.88
2018-10-11T11:10:39.578Z,96486.68
2018-10-11T11:13:08.765Z,96482.66
2018-10-11T11:15:38.355Z,96481.09
2018-10-11T11:18:07.490Z,96483.77
2018-10-11T11:20:36.631Z,96482.34
2018-10-11T11:23:05.912Z,96482.39
2018-10-11T11:25:35.799Z,96478.09
2018-10-11T11:28:05.894Z,96475.64
2018-10-11T11:30:35.903Z,96479.91
2018-10-11T11:33:05.981Z,96479.33
2018-10-11T11:35:35.938Z,96471.70
2018-10-11T11:38:06.126Z,96468.59
2018-10-11T11:40:35.979Z,96474.02
2018-10-11T11:43:06.134Z,96468.74
2018-10-11T11:45:36.064Z,96469.91
2018-10-11T11:48:06.687Z,96458.19
2018-10-11T11:50:35.995Z,96452.59
2018-10-11T11:53:06.236Z,96455.81
2018-10-11T11:55:36.130Z,96459.05
2018-10-11T11:58:05.463Z,96469.00
2018-10-11T12:00:34.450Z,96460.15
2018-10-11T12:03:03.583Z,96464.72
2018-10-11T12:05:32.731Z,96463.13
2018-10-11T12:08:01.874Z,96463.99
2018-10-11T12:10:31.174Z,96465.07
2018-10-11T12:13:02.563Z,96467.27
2018-10-11T12:15:32.478Z,96468.88
2018-10-11T12:18:02.795Z,96463.29
2018-10-11T12:20:33.130Z,96463.56
2018-10-11T12:23:03.343Z,96468.41
2018-10-11T12:25:32.762Z,96458.77
2018-10-11T12:28:01.980Z,96453.98
2018-10-11T12:30:31.258Z,96464.17
2018-10-11T12:33:00.654Z,96465.28
2018-10-11T12:35:30.204Z,96465.28
2018-10-11T12:37:59.347Z,96464.23
2018-10-11T12:40:28.489Z,96470.11
2018-10-11T12:42:57.647Z,96466.12
2018-10-11T12:45:26.913Z,96466.63
2018-10-11T12:47:55.922Z,96464.22
2018-10-11T12:50:25.102Z,96461.02
2018-10-11T12:52:54.239Z,96457.00
2018-10-11T12:55:23.391Z,96454.86
2018-10-11T12:57:52.538Z,96458.88
2018-10-11T13:00:21.691Z,96454.84
2018-10-11T13:02:51.196Z,96461.81
2018-10-11T13:05:20.350Z,96460.22
2018-10-11T13:07:49.792Z,96462.59
2018-10-11T13:10:18.937Z,96465.84
2018-10-11T13:12:48.607Z,96470.92
2018-10-11T13:15:17.746Z,96465.57
2018-10-11T13:17:46.875Z,96464.73
2018-10-11T13:20:16.040Z,96470.37
2018-10-11T13:22:45.202Z,96466.91
2018-10-11T13:25:14.447Z,96462.36
2018-10-11T13:27:43.582Z,96467.70
2018-10-11T13:30:12.734Z,96472.25
2018-10-11T13:32:41.879Z,96472.27
2018-10-11T13:35:11.255Z,96470.17
2018-10-11T13:37:41.086Z,96462.14
2018-10-11T13:40:11.151Z,96466.16
2018-10-11T13:42:41.139Z,96464.31
2018-10-11T13:45:11.238Z,96462.42
2018-10-11T13:47:43.706Z,96468.34
2018-10-11T13:50:09.565Z,96465.95
2018-10-11T13:52:39.067Z,96462.24
2018-10-11T13:55:12.154Z,96466.53
2018-10-11T13:57:37.374Z,96463.06
2018-10-11T14:00:07.594Z,96461.47
2018-10-11T14:02:36.763Z,96466.02
2018-10-11T14:05:06.298Z,96465.48
2018-10-11T14:07:35.522Z,96466.84
2018-10-11T14:10:04.675Z,96467.11
2018-10-11T14:12:33.826Z,96471.14
2018-10-11T14:15:02.963Z,96463.13
2018-10-11T14:17:32.342Z,96466.62
2018-10-11T14:20:01.454Z,96475.44
2018-10-11T14:22:30.599Z,96477.05
2018-10-11T14:24:59.735Z,96473.59
2018-10-11T14:27:28.898Z,96475.70
2018-10-11T14:29:58.078Z,96473.03
2018-10-11T14:32:27.244Z,96470.91
2018-10-11T14:34:56.374Z,96468.52
2018-10-11T14:37:25.663Z,96470.10
2018-10-11T14:39:54.823Z,96465.02
2018-10-11T14:42:24.074Z,96463.69
2018-10-11T14:44:53.217Z,96467.44
2018-10-11T14:47:22.388Z,96466.11
2018-10-11T14:49:51.744Z,96466.92
2018-10-11T14:52:20.899Z,96465.30
2018-10-11T14:54:50.026Z,96466.13
2018-10-11T14:57:19.280Z,96467.19
2018-10-11T14:59:48.367Z,96465.56
2018-10-11T15:02:17.531Z,96468.80
2018-10-11T15:04:46.662Z,96470.67
2018-10-11T15:07:16.119Z,96474.16
2018-10-11T15:09:46.180Z,96474.42
2018-10-11T15:12:16.027Z,96466.39
2018-10-11T15:14:46.011Z,96468.00
2018-10-11T15:17:16.066Z,96473.07
2018-10-11T15:19:46.254Z,96473.89
2018-10-11T15:22:15.373Z,96478.17
2018-10-11T15:24:44.531Z,96469.36
2018-10-11T15:27:13.730Z,96473.64
2018-10-11T15:29:42.931Z,96482.98
2018-10-11T15:32:12.080Z,96476.06
2018-10-11T15:34:41.215Z,96476.34
2018-10-11T15:37:10.358Z,96477.42
2018-10-11T15:39:39.547Z,96475.55
2018-10-11T15:42:08.682Z,96488.66
2018-10-11T15:44:39.056Z,96486.25
2018-10-11T15:47:08.251Z,96490.27
2018-10-11T15:49:37.398Z,96486.79
2018-10-11T15:52:06.596Z,96491.62
2018-10-11T15:54:35.687Z,96492.15
2018-10-11T15:57:04.837Z,96490.57
2018-10-11T15:59:33.990Z,96500.45
2018-10-11T16:02:03.191Z,96500.18
2018-10-11T16:04:32.335Z,96503.95
2018-10-11T16:07:01.482Z,96504.20
2018-10-11T16:09:30.735Z,96509.30
2018-10-11T16:11:59.830Z,96513.58
2018-10-11T16:14:28.962Z,96514.62
2018-10-11T16:16:58.177Z,96514.37
2018-10-11T16:19:27.402Z,96511.70
2018-10-11T16:21:56.670Z,96518.92
2018-10-11T16:24:25.814Z,96514.87
2018-10-11T16:26:54.971Z,96516.77
2018-10-11T16:29:24.135Z,96521.55
2018-10-11T16:31:53.274Z,96522.36
2018-10-11T16:34:22.571Z,96515.70
2018-10-11T16:36:51.718Z,96521.00
2018-10-11T16:39:21.246Z,96515.14
2018-10-11T16:41:50.432Z,96513.28
2018-10-11T16:44:19.695Z,96508.22
2018-10-11T16:46:48.910Z,96514.86
2018-10-11T16:49:18.075Z,96520.75
2018-10-11T16:51:47.358Z,96516.46
2018-10-11T16:54:16.535Z,96517.80
2018-10-11T16:56:46.586Z,96511.67
2018-10-11T16:59:16.577Z,96522.87
2018-10-11T17:01:46.631Z,96523.42
2018-10-11T17:04:16.566Z,96526.35
2018-10-11T17:06:46.494Z,96526.06
2018-10-11T17:09:16.538Z,96531.14
2018-10-11T17:11:46.553Z,96528.99
2018-10-11T17:14:16.635Z,96528.73
2018-10-11T17:16:46.826Z,96534.33
2018-10-11T17:19:15.973Z,96538.59
2018-10-11T17:21:46.432Z,96547.67
2018-10-11T17:24:16.540Z,96555.67
2018-10-11T17:26:46.643Z,96560.72
2018-10-11T17:29:16.562Z,96563.94
2018-10-11T17:31:46.618Z,96569.53
2018-10-11T17:34:16.250Z,96578.58
2018-10-11T17:36:45.482Z,96566.56
2018-10-11T17:39:14.611Z,96578.27
2018-10-11T17:41:43.755Z,96566.98
2018-10-11T17:44:12.902Z,96566.40
2018-10-11T17:46:42.142Z,96566.70
2018-10-11T17:49:11.395Z,96562.45
2018-10-11T17:51:40.525Z,96566.70
2018-10-11T17:54:09.739Z,96560.86
2018-10-11T18:01:43.450Z,96565.55
2018-10-11T18:04:12.590Z,96567.45
2018-10-11T18:06:41.759Z,96560.72
2018-10-11T18:09:11.686Z,96562.30
2018-10-11T18:11:40.850Z,96561.47
2018-10-11T18:14:10.999Z,96566.03
2018-10-11T18:16:40.155Z,96574.05
2018-10-11T18:19:09.307Z,96573.53
2018-10-11T18:21:38.549Z,96580.73
2018-10-11T18:24:07.790Z,96592.70
2018-10-11T18:26:37.182Z,96597.21
2018-10-11T18:29:06.476Z,96591.58
2018-10-11T18:31:35.907Z,96594.14
2018-10-11T18:34:05.103Z,96594.67
2018-10-11T18:36:34.288Z,96594.36
2018-10-11T18:39:03.473Z,96595.63
2018-10-11T18:41:32.623Z,96587.11
2018-10-11T18:44:01.915Z,96597.75
2018-10-11T18:46:31.062Z,96589.76
2018-10-11T18:49:00.221Z,96592.20
2018-10-11T18:51:29.634Z,96592.48
2018-10-11T18:53:58.774Z,96594.91
2018-10-11T18:56:28.031Z,96599.11
2018-10-11T18:58:57.190Z,96598.06
2018-10-11T19:01:26.386Z,96605.74
2018-10-11T19:03:55.594Z,96610.86
2018-10-11T19:06:24.791Z,96605.19
2018-10-11T19:08:53.887Z,96600.36
2018-10-11T19:11:23.334Z,96605.08
2018-10-11T19:13:52.475Z,96609.58
2018-10-11T19:16:22.048Z,96603.77
2018-10-11T19:18:52.014Z,96607.69
2018-10-11T19:21:22.021Z,96613.26
2018-10-11T19:23:51.982Z,96611.11
2018-10-11T19:26:22.025Z,96616.72
2018-10-11T19:28:52.031Z,96615.60
2018-10-11T19:31:22.036Z,96619.24
2018-10-11T19:33:52.054Z,96625.98
2018-10-11T19:36:22.052Z,96630.45
2018-10-11T19:38:52.088Z,96632.55
2018-10-11T19:41:22.111Z,96630.55
2018-10-11T19:43:52.119Z,96627.83
2018-10-11T19:46:22.124Z,96628.05
2018-10-11T19:48:52.089Z,96618.70
2018-10-11T19:51:22.058Z,96622.13
2018-10-11T19:53:52.209Z,96617.30
2018-10-11T19:56:22.304Z,96630.44
2018-10-11T19:58:52.105Z,96626.72
2018-10-11T20:01:22.267Z,96631.45
2018-10-11T20:03:52.037Z,96629.83
2018-10-11T20:06:22.343Z,96634.32
2018-10-11T20:08:52.116Z,96633.03
2018-10-11T20:11:22.290Z,96635.14
2018-10-11T20:13:51.614Z,96638.05
2018-10-11T20:16:20.815Z,96643.63
2018-10-11T20:18:50.103Z,96644.47
2018-10-11T20:21:19.237Z,96644.97
2018-10-11T20:23:48.391Z,96650.00
2018-10-11T20:26:17.528Z,96644.67
2018-10-11T20:28:46.658Z,96653.77
2018-10-11T20:31:15.825Z,96658.62
2018-10-11T20:33:44.969Z,96669.73
2018-10-11T20:36:14.128Z,96663.31
2018-10-11T20:38:43.298Z,96663.53
2018-10-11T20:41:12.457Z,96666.70
2018-10-11T20:43:41.759Z,96664.81
2018-10-11T20:46:10.966Z,96671.44
2018-10-11T20:48:40.288Z,96675.41
2018-10-11T20:51:09.534Z,96680.68
2018-10-11T20:53:38.590Z,96682.85
2018-10-11T20:56:08.031Z,96688.22
2018-10-11T20:58:37.156Z,96686.89
2018-10-11T21:01:06.423Z,96690.31
2018-10-11T21:03:35.559Z,96681.22
2018-10-11T21:06:04.744Z,96682.02
2018-10-11T21:08:33.899Z,96682.06
2018-10-11T21:11:03.311Z,96682.72
2018-10-11T21:13:32.500Z,96675.36
2018-10-11T21:16:01.754Z,96680.63
2018-10-11T21:18:30.882Z,96685.78
2018-10-11T21:21:00.112Z,96688.44
2018-10-11T21:23:29.242Z,96691.08
2018-10-11T21:25:58.499Z,96689.42
2018-10-11T21:28:28.462Z,96698.22
2018-10-11T21:30:58.488Z,96708.05
2018-10-11T21:33:28.493Z,96707.05
2018-10-11T21:35:58.521Z,96703.52
2018-10-11T21:38:28.524Z,96692.03
2018-10-11T21:40:58.485Z,96696.44
2018-10-11T21:43:28.458Z,96689.52
2018-10-11T21:45:58.526Z,96681.59
2018-10-11T21:48:28.538Z,96680.74
2018-10-11T21:50:58.469Z,96684.73
2018-10-11T21:53:28.527Z,96677.89
2018-10-11T21:55:58.570Z,96678.00
2018-10-11T21:58:28.570Z,96685.14
2018-10-11T22:01:03.866Z,96693.17
2018-10-11T22:03:33.001Z,96703.36
2018-10-11T22:06:02.359Z,96699.39
2018-10-11T22:08:31.648Z,96701.78
2018-10-11T22:11:00.790Z,96699.13
2018-10-11T22:13:29.962Z,96704.36
2018-10-11T22:15:59.110Z,96708.89
2018-10-11T22:18:28.762Z,96716.36
2018-10-11T22:20:59.122Z,96721.10
2018-10-11T22:23:28.546Z,96723.47
2018-10-11T22:25:58.699Z,96721.46
2018-10-11T22:28:29.005Z,96723.20
2018-10-11T22:30:58.546Z,96725.89
2018-10-11T22:33:28.702Z,96728.41
2018-10-11T22:35:58.819Z,96734.62
2018-10-11T22:38:28.732Z,96732.52
2018-10-11T22:40:58.674Z,96743.64
2018-10-11T22:43:28.773Z,96743.67
2018-10-11T22:45:58.788Z,96752.35
2018-10-11T22:48:28.611Z,96750.23
2018-10-11T22:50:58.899Z,96752.41
2018-10-11T22:53:28.743Z,96742.64
2018-10-11T22:55:58.789Z,96740.28
2018-10-11T22:58:28.610Z,96743.70
2018-10-11T23:00:58.790Z,96747.96
2018-10-11T23:03:28.892Z,96756.67
2018-10-11T23:05:59.039Z,96757.58
2018-10-11T23:08:28.650Z,96761.27
2018-10-11T23:10:58.662Z,96759.03
2018-10-11T23:13:28.647Z,96766.26
2018-10-11T23:15:58.807Z,96765.69
2018-10-11T23:18:28.985Z,96765.20
2018-10-11T23:20:58.943Z,96765.92
2018-10-11T23:23:28.815Z,96771.80
2018-10-11T23:25:59.874Z,96775.57
2018-10-11T23:28:29.182Z,96775.41
2018-10-11T23:30:58.739Z,96780.34
2018-10-11T23:33:28.818Z,96783.16
2018-10-11T23:35:58.826Z,96785.03
2018-10-11T23:38:28.755Z,96787.91
2018-10-11T23:41:00.008Z,96793.59
2018-10-11T23:43:29.183Z,96787.52
2018-10-11T23:45:59.006Z,96791.41
2018-10-11T23:48:29.101Z,96789.84
2018-10-11T23:50:58.785Z,96799.87
2018-10-11T23:53:28.762Z,96785.58
2018-10-11T23:55:58.826Z,96783.40
2018-10-11T23:58:28.085Z,96786.61
